Time;durP1;ratioP1;P1;durP2;ratioP2;P2;SDS_P1;SDS_P2;PMS_P1;PMS_P2;Temp;Humidity;BMP_temperature;BMP_pressure;BME280_temperature;BME280_humidity;BME280_pressure;Samples;Min_cycle;Max_cycle;Signal;HPM_P1;HPM_P2
2023/09/09 00:02:01;;;;;;;;;;;23.10;32.90;;;;;;5030097;28;19927;-68
2023/09/09 00:04:28;;;;;;;;;;;23.20;31.00;;;;;;5027901;28;19913;-68
2023/09/09 00:06:56;;;;;;;;;;;23.20;32.80;;;;;;5029960;28;19913;-70
2023/09/09 00:09:22;;;;;;;;;;;23.30;33.50;;;;;;5035789;28;19974;-68
2023/09/09 00:11:49;;;;;;;;;;;23.10;32.00;;;;;;5032029;28;20000;-70
2023/09/09 00:14:16;;;;;;;;;;;22.70;31.90;;;;;;5028065;28;20267;-68
2023/09/09 00:16:42;;;;;;;;;;;23.10;32.60;;;;;;5028992;28;19929;-69
2023/09/09 00:19:09;;;;;;;;;;;24.30;32.50;;;;;;5031697;28;20007;-69
2023/09/09 00:21:35;;;;;;;;;;;23.70;31.20;;;;;;5033361;28;19913;-69
2023/09/09 00:24:03;;;;;;;;;;;23.40;32.40;;;;;;5031002;28;19913;-69
2023/09/09 00:26:31;;;;;;;;;;;23.60;32.80;;;;;;5047145;28;19929;-70
2023/09/09 00:28:58;;;;;;;;;;;23.80;32.30;;;;;;5032370;28;19913;-69
2023/09/09 00:31:25;;;;;;;;;;;23.70;31.20;;;;;;5032654;28;19970;-69
2023/09/09 00:33:52;;;;;;;;;;;23.90;31.30;;;;;;5032450;28;20013;-70
2023/09/09 00:36:19;;;;;;;;;;;23.90;32.40;;;;;;5032820;28;20020;-71
2023/09/09 00:38:46;;;;;;;;;;;23.90;31.20;;;;;;5030705;28;19964;-69
2023/09/09 00:41:17;;;;;;;;;;;23.80;30.80;;;;;;5028442;28;19922;-69
2023/09/09 00:43:44;;;;;;;;;;;23.90;29.70;;;;;;5030783;28;20270;-70
2023/09/09 00:46:12;;;;;;;;;;;23.70;30.50;;;;;;5043001;28;19921;-69
2023/09/09 00:48:39;;;;;;;;;;;23.80;31.70;;;;;;5030094;28;20333;-70
2023/09/09 00:51:05;;;;;;;;;;;23.90;31.80;;;;;;5031487;28;19917;-68
2023/09/09 00:53:34;;;;;;;;;;;24.10;32.20;;;;;;5032429;28;19913;-68
2023/09/09 00:56:01;;;;;;;;;;;24.80;31.10;;;;;;5027998;28;20375;-67
2023/09/09 00:58:31;;;;;;;;;;;24.90;29.40;;;;;;5031135;28;19933;-69
2023/09/09 01:00:58;;;;;;;;;;;24.30;30.50;;;;;;5031114;28;19924;-68
2023/09/09 01:03:25;;;;;;;;;;;24.40;30.30;;;;;;5031708;28;20394;-69
2023/09/09 01:05:52;;;;;;;;;;;24.80;31.20;;;;;;5028025;28;19931;-67
2023/09/09 01:08:26;;;;;;;;;;;25.70;28.30;;;;;;5027582;28;19913;-69
2023/09/09 01:10:53;;;;;;;;;;;25.30;30.00;;;;;;5029934;28;20294;-69
2023/09/09 01:13:20;;;;;;;;;;;25.00;29.30;;;;;;5029190;28;19921;-68
2023/09/09 01:15:46;;;;;;;;;;;24.70;28.30;;;;;;5028957;28;19939;-69
2023/09/09 01:18:13;;;;;;;;;;;24.70;28.60;;;;;;5032020;28;19921;-69
2023/09/09 01:20:43;;;;;;;;;;;25.00;28.80;;;;;;5032161;28;20068;-68
2023/09/09 01:23:09;;;;;;;;;;;24.90;28.70;;;;;;5032169;28;19921;-69
2023/09/09 01:25:36;;;;;;;;;;;24.90;29.00;;;;;;5029691;28;19920;-68
2023/09/09 01:28:03;;;;;;;;;;;25.00;28.10;;;;;;5030894;28;19971;-69
2023/09/09 01:30:31;;;;;;;;;;;24.90;28.40;;;;;;5033040;28;19913;-71
2023/09/09 01:32:57;;;;;;;;;;;25.00;28.00;;;;;;5027655;28;19972;-70
2023/09/09 01:35:24;;;;;;;;;;;24.90;28.10;;;;;;5033175;28;19925;-68
2023/09/09 01:37:51;;;;;;;;;;;25.00;28.40;;;;;;5029687;28;19928;-68
2023/09/09 01:40:17;;;;;;;;;;;25.20;27.70;;;;;;5030590;28;20296;-67
2023/09/09 01:42:47;;;;;;;;;;;24.70;28.40;;;;;;5033840;28;19920;-69
2023/09/09 01:45:14;;;;;;;;;;;24.90;30.20;;;;;;5031691;28;19928;-69
2023/09/09 01:47:40;;;;;;;;;;;25.20;29.90;;;;;;5037091;28;19928;-68
2023/09/09 01:50:07;;;;;;;;;;;25.10;27.20;;;;;;5029510;28;19914;-68
2023/09/09 01:52:34;;;;;;;;;;;25.20;29.30;;;;;;5031838;28;20365;-68
2023/09/09 01:55:00;;;;;;;;;;;25.20;26.20;;;;;;5028098;28;20390;-70
2023/09/09 01:57:29;;;;;;;;;;;24.70;27.50;;;;;;5032209;28;19913;-69
2023/09/09 01:59:57;;;;;;;;;;;24.80;29.40;;;;;;5028962;28;19917;-70
2023/09/09 02:02:23;;;;;;;;;;;25.30;27.40;;;;;;5032055;28;19909;-70
2023/09/09 02:04:50;;;;;;;;;;;25.10;27.50;;;;;;5031219;28;19917;-70
2023/09/09 02:07:17;;;;;;;;;;;25.40;29.20;;;;;;5028483;28;19943;-69
2023/09/09 02:09:44;;;;;;;;;;;25.40;26.90;;;;;;5030954;28;20354;-70
2023/09/09 02:12:11;;;;;;;;;;;25.20;26.50;;;;;;5029800;28;20316;-71
2023/09/09 02:14:38;;;;;;;;;;;25.10;26.60;;;;;;5026049;28;19973;-70
2023/09/09 02:17:04;;;;;;;;;;;25.10;27.40;;;;;;5025463;28;19917;-70
2023/09/09 02:19:31;;;;;;;;;;;25.20;27.80;;;;;;5028191;28;19943;-70
2023/09/09 02:21:58;;;;;;;;;;;25.10;27.50;;;;;;5028879;28;19955;-70
2023/09/09 02:24:25;;;;;;;;;;;25.50;28.20;;;;;;5030491;28;20317;-70
2023/09/09 02:26:51;;;;;;;;;;;25.60;28.00;;;;;;5030667;28;19919;-72
2023/09/09 02:29:18;;;;;;;;;;;25.80;27.70;;;;;;5029551;28;19910;-70
2023/09/09 02:31:45;;;;;;;;;;;25.80;27.60;;;;;;5030724;28;19932;-70
2023/09/09 02:34:11;;;;;;;;;;;25.80;28.10;;;;;;5030520;28;20374;-70
2023/09/09 02:36:44;;;;;;;;;;;25.80;28.30;;;;;;5030472;28;19921;-69
2023/09/09 02:39:10;;;;;;;;;;;25.90;26.10;;;;;;5029640;28;19932;-69
2023/09/09 02:41:37;;;;;;;;;;;25.90;27.30;;;;;;5030160;28;19920;-69
2023/09/09 02:44:04;;;;;;;;;;;26.30;25.10;;;;;;5030409;28;19913;-68
2023/09/09 02:46:30;;;;;;;;;;;26.30;26.20;;;;;;5030016;28;19925;-68
2023/09/09 02:48:57;;;;;;;;;;;26.40;27.30;;;;;;5030976;28;19920;-69
2023/09/09 02:51:24;;;;;;;;;;;26.30;27.40;;;;;;5031623;28;19960;-69
2023/09/09 02:53:50;;;;;;;;;;;26.50;27.30;;;;;;5032556;28;20382;-70
2023/09/09 02:56:17;;;;;;;;;;;26.40;28.60;;;;;;5033828;28;19971;-69
2023/09/09 02:58:44;;;;;;;;;;;26.30;28.10;;;;;;5033004;28;19913;-69
2023/09/09 03:01:11;;;;;;;;;;;26.50;29.10;;;;;;5034509;28;20394;-68
2023/09/09 03:03:37;;;;;;;;;;;26.40;28.00;;;;;;5033087;28;19924;-69
2023/09/09 03:06:05;;;;;;;;;;;26.20;25.10;;;;;;5032150;28;19955;-69
2023/09/09 03:08:32;;;;;;;;;;;26.00;27.80;;;;;;5033302;28;19920;-69
2023/09/09 03:10:58;;;;;;;;;;;25.90;28.40;;;;;;5032682;28;20008;-69
2023/09/09 03:13:27;;;;;;;;;;;25.80;28.20;;;;;;5033927;28;19920;-69
2023/09/09 03:15:54;;;;;;;;;;;25.50;28.90;;;;;;5033464;28;19921;-69
2023/09/09 03:18:20;;;;;;;;;;;25.60;28.60;;;;;;5033137;28;19921;-68
2023/09/09 03:20:47;;;;;;;;;;;25.70;29.20;;;;;;5032556;28;19917;-69
2023/09/09 03:23:14;;;;;;;;;;;26.10;28.60;;;;;;5033534;28;19924;-70
2023/09/09 03:25:40;;;;;;;;;;;26.10;29.00;;;;;;5034090;28;19975;-69
2023/09/09 03:28:07;;;;;;;;;;;25.70;27.20;;;;;;5034493;28;19909;-69
2023/09/09 03:30:52;;;;;;;;;;;25.50;28.10;;;;;;5036277;28;19970;-68
2023/09/09 03:33:18;;;;;;;;;;;25.20;27.60;;;;;;5035392;28;19913;-68
2023/09/09 03:35:45;;;;;;;;;;;25.10;29.50;;;;;;5031752;28;19929;-69
2023/09/09 03:38:12;;;;;;;;;;;25.40;28.90;;;;;;5034333;28;19913;-68
2023/09/09 03:40:38;;;;;;;;;;;25.40;27.00;;;;;;5032970;28;19909;-68
2023/09/09 03:43:05;;;;;;;;;;;25.30;27.90;;;;;;5032069;28;19913;-68
2023/09/09 03:45:32;;;;;;;;;;;25.30;27.60;;;;;;5033527;28;19928;-67
2023/09/09 03:47:58;;;;;;;;;;;25.10;27.50;;;;;;5031039;28;19912;-68
2023/09/09 03:50:25;;;;;;;;;;;24.90;28.10;;;;;;5034529;28;20373;-69
2023/09/09 03:52:52;;;;;;;;;;;25.20;28.70;;;;;;5032846;28;19952;-68
2023/09/09 03:55:22;;;;;;;;;;;25.40;27.50;;;;;;5031885;28;20199;-71
2023/09/09 03:57:49;;;;;;;;;;;25.30;27.50;;;;;;5032545;28;19990;-69
2023/09/09 04:00:16;;;;;;;;;;;25.40;28.30;;;;;;5033709;28;20031;-69
2023/09/09 04:02:42;;;;;;;;;;;25.50;27.20;;;;;;5030781;28;19963;-69
2023/09/09 04:05:09;;;;;;;;;;;25.40;26.80;;;;;;5033617;28;19913;-68
2023/09/09 04:07:36;;;;;;;;;;;25.00;27.10;;;;;;5030682;28;19917;-69
2023/09/09 04:10:03;;;;;;;;;;;24.90;27.60;;;;;;5028723;28;19913;-69
2023/09/09 04:12:30;;;;;;;;;;;24.80;28.10;;;;;;5034253;28;19921;-69
2023/09/09 04:14:57;;;;;;;;;;;24.60;27.00;;;;;;5031825;28;19963;-70
2023/09/09 04:17:23;;;;;;;;;;;24.50;27.90;;;;;;5034322;28;19913;-68
2023/09/09 04:19:50;;;;;;;;;;;24.60;26.80;;;;;;5033775;28;19917;-70
2023/09/09 04:22:17;;;;;;;;;;;24.50;27.20;;;;;;5029909;28;19943;-70
2023/09/09 04:24:43;;;;;;;;;;;24.60;26.90;;;;;;5028828;28;19913;-69
2023/09/09 04:27:10;;;;;;;;;;;24.50;27.60;;;;;;5032955;28;19917;-69
2023/09/09 04:29:37;;;;;;;;;;;24.80;27.70;;;;;;5032670;28;19913;-68
2023/09/09 04:32:04;;;;;;;;;;;24.70;28.10;;;;;;5033391;28;19909;-69
2023/09/09 04:34:30;;;;;;;;;;;24.60;28.40;;;;;;5031822;28;20015;-69
2023/09/09 04:36:57;;;;;;;;;;;24.60;28.00;;;;;;5032104;28;19983;-69
2023/09/09 04:39:24;;;;;;;;;;;24.30;27.20;;;;;;5032977;28;19913;-70
2023/09/09 04:41:50;;;;;;;;;;;24.50;27.70;;;;;;5031427;28;19916;-70
2023/09/09 04:44:17;;;;;;;;;;;24.30;28.70;;;;;;5033430;28;20005;-69
2023/09/09 04:46:45;;;;;;;;;;;24.50;28.60;;;;;;5032773;28;19913;-69
2023/09/09 04:49:11;;;;;;;;;;;24.40;28.10;;;;;;5030327;28;19913;-70
2023/09/09 04:51:38;;;;;;;;;;;24.40;28.10;;;;;;5034805;28;20374;-69
2023/09/09 04:54:05;;;;;;;;;;;24.00;28.80;;;;;;5033199;28;20007;-69
2023/09/09 04:56:31;;;;;;;;;;;24.10;28.10;;;;;;5032441;28;20019;-69
2023/09/09 04:58:58;;;;;;;;;;;24.20;27.90;;;;;;5032862;28;20255;-69
2023/09/09 05:01:25;;;;;;;;;;;23.90;28.20;;;;;;5033597;28;20444;-69
2023/09/09 05:03:51;;;;;;;;;;;23.60;29.20;;;;;;5030819;28;19913;-69
2023/09/09 05:06:18;;;;;;;;;;;23.50;29.00;;;;;;5032035;28;19999;-68
2023/09/09 05:08:45;;;;;;;;;;;23.10;29.70;;;;;;5033406;28;19917;-69
2023/09/09 05:11:12;;;;;;;;;;;23.00;29.40;;;;;;5032192;28;19909;-69
2023/09/09 05:13:39;;;;;;;;;;;22.70;29.90;;;;;;5029922;28;19913;-69
2023/09/09 05:16:06;;;;;;;;;;;22.40;30.10;;;;;;5031613;28;19917;-69
2023/09/09 05:18:32;;;;;;;;;;;22.40;29.30;;;;;;5031029;28;19922;-68
2023/09/09 05:20:59;;;;;;;;;;;22.50;29.20;;;;;;5032962;28;20370;-69
2023/09/09 05:23:26;;;;;;;;;;;22.30;30.00;;;;;;5031654;28;19913;-70
2023/09/09 05:25:52;;;;;;;;;;;22.40;30.20;;;;;;5031816;28;19912;-70
2023/09/09 05:28:19;;;;;;;;;;;22.40;29.90;;;;;;5032447;28;19959;-68
2023/09/09 05:30:45;;;;;;;;;;;22.40;29.80;;;;;;5032246;28;20014;-70
2023/09/09 05:33:12;;;;;;;;;;;22.40;30.50;;;;;;5032832;28;19914;-70
2023/09/09 05:35:39;;;;;;;;;;;22.40;30.70;;;;;;5032112;28;19925;-70
2023/09/09 05:38:05;;;;;;;;;;;22.40;30.30;;;;;;5031597;28;19920;-69
2023/09/09 05:40:32;;;;;;;;;;;22.50;30.90;;;;;;5032140;28;19909;-69
2023/09/09 05:42:59;;;;;;;;;;;22.30;31.40;;;;;;5031909;28;19921;-69
2023/09/09 05:45:25;;;;;;;;;;;22.30;31.00;;;;;;5031638;28;19956;-69
2023/09/09 05:47:52;;;;;;;;;;;22.30;30.80;;;;;;5029519;28;19967;-70
2023/09/09 05:50:19;;;;;;;;;;;22.30;31.10;;;;;;5027745;28;20016;-69
2023/09/09 05:52:45;;;;;;;;;;;22.20;31.10;;;;;;5031238;28;19920;-69
2023/09/09 05:55:12;;;;;;;;;;;21.90;31.80;;;;;;5028235;28;20386;-70
2023/09/09 05:57:39;;;;;;;;;;;21.80;31.50;;;;;;5027677;28;19913;-70
2023/09/09 06:00:06;;;;;;;;;;;21.50;32.80;;;;;;5029469;28;19913;-69
2023/09/09 06:02:33;;;;;;;;;;;21.50;31.50;;;;;;5028977;28;19924;-70
2023/09/09 06:04:59;;;;;;;;;;;21.40;32.00;;;;;;5025196;28;19951;-69
2023/09/09 06:07:26;;;;;;;;;;;21.30;32.30;;;;;;5033056;28;19973;-70
2023/09/09 06:09:53;;;;;;;;;;;21.20;32.40;;;;;;5029379;28;20362;-70
2023/09/09 06:12:19;;;;;;;;;;;21.20;32.50;;;;;;5032545;28;20278;-70
2023/09/09 06:14:46;;;;;;;;;;;21.10;32.90;;;;;;5036917;28;19920;-70
2023/09/09 06:17:13;;;;;;;;;;;21.10;32.90;;;;;;5032263;28;19963;-69
2023/09/09 06:19:40;;;;;;;;;;;21.10;32.50;;;;;;5032704;28;20359;-69
2023/09/09 06:22:07;;;;;;;;;;;21.20;32.30;;;;;;5031704;28;20321;-68
2023/09/09 06:24:35;;;;;;;;;;;21.10;32.70;;;;;;5029816;28;19924;-69
2023/09/09 06:27:01;;;;;;;;;;;21.00;33.40;;;;;;5039895;28;19967;-68
2023/09/09 06:29:29;;;;;;;;;;;21.00;32.20;;;;;;5032457;28;19956;-70
2023/09/09 06:31:55;;;;;;;;;;;20.90;32.90;;;;;;5033025;28;19917;-68
2023/09/09 06:34:22;;;;;;;;;;;21.00;32.00;;;;;;5029621;28;19967;-69
2023/09/09 06:36:49;;;;;;;;;;;20.80;32.40;;;;;;5029613;28;19936;-70
2023/09/09 06:39:15;;;;;;;;;;;20.60;33.10;;;;;;5027763;28;20853;-70
2023/09/09 06:41:42;;;;;;;;;;;20.50;34.00;;;;;;5030133;28;19920;-71
2023/09/09 06:44:09;;;;;;;;;;;20.30;34.00;;;;;;5029529;28;19914;-71
2023/09/09 06:46:36;;;;;;;;;;;20.30;33.80;;;;;;5031290;28;19939;-71
2023/09/09 06:49:03;;;;;;;;;;;20.00;35.50;;;;;;5027031;28;19917;-70
2023/09/09 06:51:30;;;;;;;;;;;19.80;38.60;;;;;;5045966;28;20523;-72
2023/09/09 06:53:56;;;;;;;;;;;19.70;39.10;;;;;;5029394;28;19917;-70
2023/09/09 06:56:23;;;;;;;;;;;19.40;39.80;;;;;;5029367;28;19921;-70
2023/09/09 06:58:50;;;;;;;;;;;19.30;39.50;;;;;;5032093;28;20406;-70
2023/09/09 07:01:16;;;;;;;;;;;19.30;40.20;;;;;;5031722;28;20366;-70
2023/09/09 07:03:43;;;;;;;;;;;19.00;40.70;;;;;;5032200;28;19917;-70
2023/09/09 07:06:10;;;;;;;;;;;18.90;41.70;;;;;;5031847;28;19924;-70
2023/09/09 07:08:39;;;;;;;;;;;18.60;41.90;;;;;;5029955;28;20318;-69
2023/09/09 07:11:06;;;;;;;;;;;18.50;41.80;;;;;;5031594;28;19971;-69
2023/09/09 07:13:33;;;;;;;;;;;18.30;42.20;;;;;;5030888;28;20350;-70
2023/09/09 07:15:59;;;;;;;;;;;18.10;42.80;;;;;;5032057;28;19924;-71
2023/09/09 07:18:26;;;;;;;;;;;18.00;43.10;;;;;;5028715;28;19924;-71
2023/09/09 07:20:56;;;;;;;;;;;17.90;43.60;;;;;;5030308;28;19913;-72
2023/09/09 07:23:23;;;;;;;;;;;17.80;43.90;;;;;;5033185;28;19909;-69
2023/09/09 07:25:50;;;;;;;;;;;17.70;44.20;;;;;;5029098;28;19974;-70
2023/09/09 07:28:25;;;;;;;;;;;17.40;44.60;;;;;;5032346;28;20004;-69
2023/09/09 07:30:53;;;;;;;;;;;17.30;45.50;;;;;;5027387;28;20374;-70
2023/09/09 07:33:20;;;;;;;;;;;17.10;45.50;;;;;;5031107;28;19957;-69
2023/09/09 07:35:47;;;;;;;;;;;17.10;45.70;;;;;;5029182;28;19944;-69
2023/09/09 07:38:14;;;;;;;;;;;17.00;46.40;;;;;;5033063;28;20063;-69
2023/09/09 07:40:41;;;;;;;;;;;16.80;45.70;;;;;;5034448;28;19925;-68
2023/09/09 07:43:07;;;;;;;;;;;16.70;46.20;;;;;;5032838;28;19967;-69
2023/09/09 07:45:34;;;;;;;;;;;16.70;46.40;;;;;;5034383;28;19929;-69
2023/09/09 07:48:01;;;;;;;;;;;16.60;46.80;;;;;;5035126;28;19924;-70
2023/09/09 07:50:27;;;;;;;;;;;16.40;47.50;;;;;;5034889;28;20007;-68
2023/09/09 07:52:54;;;;;;;;;;;16.40;47.30;;;;;;5035025;28;19917;-69
2023/09/09 07:55:21;;;;;;;;;;;16.30;47.10;;;;;;5031372;28;20421;-69
2023/09/09 07:57:47;;;;;;;;;;;16.20;47.10;;;;;;5048329;28;19913;-69
2023/09/09 08:00:14;;;;;;;;;;;16.20;47.40;;;;;;5034664;28;19949;-68
2023/09/09 08:02:41;;;;;;;;;;;16.10;46.90;;;;;;5029937;28;19928;-69
2023/09/09 08:05:08;;;;;;;;;;;16.00;47.60;;;;;;5029273;28;19935;-69
2023/09/09 08:07:34;;;;;;;;;;;16.00;47.70;;;;;;5027121;28;20378;-70
2023/09/09 08:10:01;;;;;;;;;;;15.90;47.80;;;;;;5029324;28;19963;-69
2023/09/09 08:12:28;;;;;;;;;;;15.80;47.50;;;;;;5027529;28;20321;-71
2023/09/09 08:15:07;;;;;;;;;;;15.80;47.70;;;;;;5030146;28;19923;-68
2023/09/09 08:17:34;;;;;;;;;;;15.60;47.80;;;;;;5030942;28;20333;-69
2023/09/09 08:20:05;;;;;;;;;;;15.50;48.80;;;;;;5026337;28;20616;-68
2023/09/09 08:22:32;;;;;;;;;;;15.50;48.50;;;;;;5028095;28;20291;-68
2023/09/09 08:25:00;;;;;;;;;;;15.50;49.40;;;;;;5029572;28;19963;-69
2023/09/09 08:27:27;;;;;;;;;;;15.40;49.10;;;;;;5030212;28;19913;-70
2023/09/09 08:29:53;;;;;;;;;;;15.40;49.10;;;;;;5032433;28;20418;-68
2023/09/09 08:32:20;;;;;;;;;;;15.30;49.30;;;;;;5033162;28;20078;-72
2023/09/09 08:34:47;;;;;;;;;;;15.30;49.30;;;;;;5032143;28;19921;-68
2023/09/09 08:37:13;;;;;;;;;;;15.10;49.70;;;;;;5033150;28;19962;-68
2023/09/09 08:39:40;;;;;;;;;;;15.10;50.20;;;;;;5029903;28;19913;-69
2023/09/09 08:42:16;;;;;;;;;;;15.00;48.50;;;;;;5032087;28;19928;-69
2023/09/09 08:44:43;;;;;;;;;;;15.00;47.60;;;;;;5029717;28;20016;-69
2023/09/09 08:47:09;;;;;;;;;;;15.00;46.40;;;;;;5031701;28;19963;-69
2023/09/09 08:49:37;;;;;;;;;;;14.90;45.60;;;;;;5030379;28;19909;-69
2023/09/09 08:52:08;;;;;;;;;;;14.90;45.50;;;;;;5028244;28;19987;-68
2023/09/09 08:54:35;;;;;;;;;;;15.00;45.10;;;;;;5028834;28;20374;-70
2023/09/09 08:57:03;;;;;;;;;;;14.80;45.50;;;;;;5031679;28;20004;-69
2023/09/09 08:59:30;;;;;;;;;;;14.80;45.20;;;;;;5031927;28;20346;-71
2023/09/09 09:01:57;;;;;;;;;;;14.80;46.00;;;;;;5029250;28;20342;-69
2023/09/09 09:04:24;;;;;;;;;;;14.80;45.70;;;;;;5031839;28;19963;-68
2023/09/09 09:06:52;;;;;;;;;;;14.60;45.70;;;;;;5030074;28;19952;-69
2023/09/09 09:09:19;;;;;;;;;;;14.70;46.20;;;;;;5030860;28;19917;-68
2023/09/09 09:11:45;;;;;;;;;;;14.50;46.10;;;;;;5028326;28;20337;-68
2023/09/09 09:14:12;;;;;;;;;;;14.40;46.60;;;;;;5025367;28;20008;-67
2023/09/09 09:16:42;;;;;;;;;;;14.30;47.30;;;;;;5023669;28;19968;-67
2023/09/09 09:19:21;;;;;;;;;;;14.20;47.60;;;;;;5025839;28;19916;-68
2023/09/09 09:21:49;;;;;;;;;;;14.20;47.70;;;;;;5027702;28;19983;-69
2023/09/09 09:24:16;;;;;;;;;;;14.00;47.90;;;;;;5031893;28;19924;-70
2023/09/09 09:26:43;;;;;;;;;;;14.00;48.00;;;;;;5046383;28;19952;-69
2023/09/09 09:29:09;;;;;;;;;;;13.80;48.40;;;;;;5030830;28;19967;-70
2023/09/09 09:31:39;;;;;;;;;;;13.80;48.80;;;;;;5030352;28;19917;-70
2023/09/09 09:34:08;;;;;;;;;;;13.80;48.30;;;;;;5038602;28;19909;-70
2023/09/09 09:36:35;;;;;;;;;;;13.80;48.80;;;;;;5035741;28;19921;-69
2023/09/09 09:39:08;;;;;;;;;;;13.60;49.40;;;;;;5034670;28;20350;-69
2023/09/09 09:41:35;;;;;;;;;;;13.60;49.40;;;;;;5034460;28;20358;-69
2023/09/09 09:44:02;;;;;;;;;;;13.50;49.40;;;;;;5032179;28;19917;-69
2023/09/09 09:46:29;;;;;;;;;;;13.50;49.90;;;;;;5030717;28;19921;-69
2023/09/09 09:48:56;;;;;;;;;;;13.50;49.80;;;;;;5033674;28;20014;-68
2023/09/09 09:51:22;;;;;;;;;;;13.50;49.70;;;;;;5031683;28;20024;-70
2023/09/09 09:53:49;;;;;;;;;;;13.40;49.90;;;;;;5030929;28;20294;-69
2023/09/09 09:56:19;;;;;;;;;;;13.40;50.20;;;;;;5029699;28;19929;-68
2023/09/09 09:58:47;;;;;;;;;;;13.30;50.70;;;;;;5030054;28;19924;-69
2023/09/09 10:01:14;;;;;;;;;;;13.30;50.80;;;;;;5031371;28;20369;-68
2023/09/09 10:03:55;;;;;;;;;;;13.20;50.60;;;;;;5031057;28;20228;-69
2023/09/09 10:06:26;;;;;;;;;;;13.00;50.90;;;;;;5030072;28;20043;-71
2023/09/09 10:09:18;;;;;;;;;;;13.10;51.50;;;;;;5026928;28;19914;-69
2023/09/09 10:12:05;;;;;;;;;;;13.10;51.00;;;;;;5027120;28;19939;-68
2023/09/09 10:14:32;;;;;;;;;;;13.00;50.80;;;;;;5028716;28;19974;-69
2023/09/09 10:16:59;;;;;;;;;;;12.90;51.00;;;;;;5030005;28;19984;-69
2023/09/09 10:19:26;;;;;;;;;;;12.90;51.40;;;;;;5026800;28;19974;-70
2023/09/09 10:21:55;;;;;;;;;;;12.90;51.70;;;;;;5031713;28;19917;-69
2023/09/09 10:24:22;;;;;;;;;;;12.80;51.10;;;;;;5030473;28;19925;-70
2023/09/09 10:26:49;;;;;;;;;;;12.80;51.70;;;;;;5031043;28;19921;-70
2023/09/09 10:29:17;;;;;;;;;;;12.70;52.00;;;;;;5029080;28;19913;-70
2023/09/09 10:31:44;;;;;;;;;;;12.60;52.20;;;;;;5032298;28;20355;-70
2023/09/09 10:34:12;;;;;;;;;;;12.50;52.10;;;;;;5029298;28;19916;-69
2023/09/09 10:36:40;;;;;;;;;;;12.50;52.20;;;;;;5028273;28;19924;-70
2023/09/09 10:39:08;;;;;;;;;;;12.50;52.20;;;;;;5031907;28;20304;-71
2023/09/09 10:41:35;;;;;;;;;;;12.50;52.60;;;;;;5029780;28;19913;-70
2023/09/09 10:44:01;;;;;;;;;;;12.40;52.20;;;;;;5032032;28;19913;-68
2023/09/09 10:46:37;;;;;;;;;;;12.50;52.70;;;;;;5029952;28;19925;-70
2023/09/09 10:49:04;;;;;;;;;;;12.40;52.90;;;;;;5031462;28;19964;-69
2023/09/09 10:51:43;;;;;;;;;;;12.40;53.60;;;;;;5029552;28;19927;-70
2023/09/09 10:54:12;;;;;;;;;;;12.30;53.20;;;;;;5029545;28;20004;-69
2023/09/09 10:56:48;;;;;;;;;;;12.20;53.40;;;;;;5031641;28;19995;-69
2023/09/09 10:59:26;;;;;;;;;;;12.20;53.70;;;;;;5029501;28;19920;-69
2023/09/09 11:02:14;;;;;;;;;;;12.20;53.40;;;;;;5030587;28;20348;-69
2023/09/09 11:04:41;;;;;;;;;;;12.30;53.40;;;;;;5030131;28;19917;-69
2023/09/09 11:07:07;;;;;;;;;;;12.20;53.70;;;;;;5031736;28;20343;-68
2023/09/09 11:09:34;;;;;;;;;;;12.20;54.10;;;;;;5029496;28;19914;-69
2023/09/09 11:12:11;;;;;;;;;;;12.10;53.80;;;;;;5033961;28;20290;-71
2023/09/09 11:14:41;;;;;;;;;;;12.10;54.70;;;;;;5033515;28;19917;-70
2023/09/09 11:17:09;;;;;;;;;;;12.10;54.70;;;;;;5034106;28;19944;-69
2023/09/09 11:19:36;;;;;;;;;;;12.10;55.70;;;;;;5033923;28;19917;-69
2023/09/09 11:22:05;;;;;;;;;;;12.00;55.20;;;;;;5034333;28;19928;-70
2023/09/09 11:24:31;;;;;;;;;;;12.00;55.70;;;;;;5035384;28;20298;-68
2023/09/09 11:26:58;;;;;;;;;;;11.90;56.00;;;;;;5033860;28;19909;-67
2023/09/09 11:29:25;;;;;;;;;;;12.00;55.50;;;;;;5032586;28;19913;-68
2023/09/09 11:31:52;;;;;;;;;;;11.80;55.70;;;;;;5034493;28;20430;-69
2023/09/09 11:34:28;;;;;;;;;;;11.70;55.50;;;;;;5033531;28;19923;-69
2023/09/09 11:36:55;;;;;;;;;;;11.60;55.40;;;;;;5033331;28;19932;-69
2023/09/09 11:39:21;;;;;;;;;;;11.60;56.00;;;;;;5048841;28;19913;-68
2023/09/09 11:41:48;;;;;;;;;;;11.60;56.90;;;;;;5034760;28;19917;-68
2023/09/09 11:44:15;;;;;;;;;;;11.50;56.80;;;;;;5035543;28;19917;-68
2023/09/09 11:46:42;;;;;;;;;;;11.40;56.70;;;;;;5036786;28;19924;-69
2023/09/09 11:49:09;;;;;;;;;;;11.40;56.80;;;;;;5041819;28;20278;-69
2023/09/09 11:51:36;;;;;;;;;;;11.40;56.90;;;;;;5028228;28;19913;-69
2023/09/09 11:54:03;;;;;;;;;;;11.40;56.90;;;;;;5037208;28;19917;-70
2023/09/09 11:56:33;;;;;;;;;;;11.30;56.90;;;;;;5033714;28;20143;-70
2023/09/09 11:59:06;;;;;;;;;;;11.40;57.20;;;;;;5034231;28;19958;-68
2023/09/09 12:01:43;;;;;;;;;;;11.30;57.50;;;;;;5032107;28;19917;-70
2023/09/09 12:04:10;;;;;;;;;;;11.30;57.50;;;;;;5029833;28;20012;-69
2023/09/09 12:06:38;;;;;;;;;;;11.20;57.90;;;;;;5033193;28;19917;-69
2023/09/09 12:09:05;;;;;;;;;;;11.10;58.30;;;;;;5030659;28;19920;-69
2023/09/09 12:11:33;;;;;;;;;;;11.20;57.70;;;;;;5032625;28;19913;-67
2023/09/09 12:14:01;;;;;;;;;;;11.20;57.40;;;;;;5034003;28;19957;-69
2023/09/09 12:16:31;;;;;;;;;;;11.20;57.30;;;;;;5032184;28;19922;-69
2023/09/09 12:18:58;;;;;;;;;;;11.10;57.50;;;;;;5034461;28;19913;-69
2023/09/09 12:21:24;;;;;;;;;;;11.00;58.00;;;;;;5034160;28;19909;-69
2023/09/09 12:23:57;;;;;;;;;;;11.00;58.60;;;;;;5031574;28;19917;-68
2023/09/09 12:26:24;;;;;;;;;;;11.00;58.70;;;;;;5034186;28;19991;-69
2023/09/09 12:29:10;;;;;;;;;;;10.90;58.80;;;;;;5050388;28;19913;-69
2023/09/09 12:32:09;;;;;;;;;;;10.80;60.00;;;;;;5032274;28;19916;-69
2023/09/09 12:34:35;;;;;;;;;;;10.80;60.30;;;;;;4988333;28;20441;-69
2023/09/09 12:37:02;;;;;;;;;;;10.70;60.10;;;;;;5032201;28;19944;-70
2023/09/09 12:39:30;;;;;;;;;;;10.60;60.60;;;;;;5032550;28;19998;-69
2023/09/09 12:42:00;;;;;;;;;;;10.60;61.20;;;;;;5030533;28;19924;-67
2023/09/09 12:44:27;;;;;;;;;;;10.70;60.30;;;;;;5030000;28;19921;-69
2023/09/09 12:46:54;;;;;;;;;;;10.60;59.60;;;;;;5030995;28;19928;-69
2023/09/09 12:49:21;;;;;;;;;;;10.60;59.60;;;;;;5033520;28;19925;-69
2023/09/09 12:51:48;;;;;;;;;;;10.50;59.80;;;;;;5032161;28;20321;-69
2023/09/09 12:54:15;;;;;;;;;;;10.50;60.00;;;;;;5030766;28;19917;-70
2023/09/09 12:56:42;;;;;;;;;;;10.50;59.70;;;;;;5032553;28;20349;-69
2023/09/09 12:59:08;;;;;;;;;;;10.40;59.90;;;;;;5032940;28;19920;-69
2023/09/09 13:01:35;;;;;;;;;;;10.30;60.20;;;;;;5031403;28;19967;-69
2023/09/09 13:04:02;;;;;;;;;;;10.20;60.70;;;;;;5029969;28;19917;-69
2023/09/09 13:06:28;;;;;;;;;;;10.30;60.70;;;;;;5030530;28;19917;-69
2023/09/09 13:08:55;;;;;;;;;;;10.20;61.10;;;;;;5033113;28;19982;-69
2023/09/09 13:11:22;;;;;;;;;;;10.10;61.20;;;;;;5035620;28;20027;-69
2023/09/09 13:13:48;;;;;;;;;;;10.10;62.10;;;;;;5032952;28;20575;-69
2023/09/09 13:16:15;;;;;;;;;;;10.10;62.60;;;;;;5032002;28;19917;-68
2023/09/09 13:18:43;;;;;;;;;;;10.00;62.20;;;;;;5032354;28;20361;-69
2023/09/09 13:21:10;;;;;;;;;;;9.90;62.40;;;;;;5029991;28;19913;-69
2023/09/09 13:23:37;;;;;;;;;;;9.90;62.70;;;;;;5027866;28;20022;-69
2023/09/09 13:26:03;;;;;;;;;;;9.90;63.00;;;;;;5031868;28;20381;-69
2023/09/09 13:28:30;;;;;;;;;;;9.90;63.00;;;;;;5030324;28;20259;-69
2023/09/09 13:30:56;;;;;;;;;;;9.80;63.00;;;;;;5030908;28;19913;-70
2023/09/09 13:33:23;;;;;;;;;;;9.80;63.30;;;;;;5031120;28;19921;-69
2023/09/09 13:35:50;;;;;;;;;;;9.80;63.50;;;;;;5031785;28;19918;-69
2023/09/09 13:38:16;;;;;;;;;;;9.80;63.20;;;;;;5031127;28;20455;-69
2023/09/09 13:40:43;;;;;;;;;;;9.70;63.40;;;;;;5028508;28;19917;-69
2023/09/09 13:43:10;;;;;;;;;;;9.70;63.60;;;;;;5026842;28;20371;-69
2023/09/09 13:45:36;;;;;;;;;;;9.60;64.50;;;;;;5028035;28;19977;-69
2023/09/09 13:48:03;;;;;;;;;;;9.50;65.70;;;;;;5031774;28;19967;-69
2023/09/09 13:50:30;;;;;;;;;;;9.50;66.10;;;;;;5031147;28;19909;-70
2023/09/09 13:52:56;;;;;;;;;;;9.60;65.20;;;;;;5030116;28;19913;-67
2023/09/09 13:55:23;;;;;;;;;;;9.50;64.80;;;;;;5030518;28;19921;-68
2023/09/09 13:57:50;;;;;;;;;;;9.50;64.70;;;;;;5045784;28;19921;-69
2023/09/09 14:00:16;;;;;;;;;;;9.40;64.50;;;;;;5030491;28;20366;-69
2023/09/09 14:02:43;;;;;;;;;;;9.40;64.90;;;;;;5029120;28;19917;-69
2023/09/09 14:05:10;;;;;;;;;;;9.40;65.10;;;;;;5031234;28;19913;-68
2023/09/09 14:07:36;;;;;;;;;;;9.40;64.70;;;;;;5031546;28;19938;-68
2023/09/09 14:10:03;;;;;;;;;;;9.50;64.20;;;;;;5032852;28;20359;-67
2023/09/09 14:12:30;;;;;;;;;;;9.40;64.30;;;;;;5027946;28;19916;-69
2023/09/09 14:14:57;;;;;;;;;;;9.40;64.30;;;;;;5030772;28;19917;-69
2023/09/09 14:17:25;;;;;;;;;;;9.20;65.00;;;;;;5029601;28;19925;-68
2023/09/09 14:19:51;;;;;;;;;;;9.20;65.60;;;;;;5029407;28;19924;-69
2023/09/09 14:22:18;;;;;;;;;;;9.20;65.60;;;;;;5029123;28;19917;-68